Time;durP1;ratioP1;P1;durP2;ratioP2;P2;SDS_P1;SDS_P2;PMS_P1;PMS_P2;Temp;Humidity;BMP_temperature;BMP_pressure;BME280_temperature;BME280_humidity;BME280_pressure;Samples;Min_cycle;Max_cycle;Signal;HPM_P1;HPM_P2
2023/07/17 00:02:04;;;;;;;;;;;;;;;23.62;44.12;100977.47;5076013;28;1131;-18
2023/07/17 00:04:29;;;;;;;;;;;;;;;23.50;46.28;100971.47;5075875;28;1056;-18
2023/07/17 00:06:55;;;;;;;;;;;;;;;25.11;44.18;100971.31;5075755;28;1910;-18
2023/07/17 00:09:20;;;;;;;;;;;;;;;25.84;40.87;100975.31;5075803;28;1063;-19
2023/07/17 00:11:46;;;;;;;;;;;;;;;25.77;42.01;100972.47;5075332;28;895;-18
2023/07/17 00:14:12;;;;;;;;;;;;;;;22.33;51.14;100970.03;5075617;28;1256;-18
2023/07/17 00:16:37;;;;;;;;;;;;;;;24.55;44.18;100967.22;5076107;28;1170;-18
2023/07/17 00:19:03;;;;;;;;;;;;;;;25.25;43.10;100963.63;5075925;28;1234;-19
2023/07/17 00:21:28;;;;;;;;;;;;;;;26.03;41.85;100964.19;5075217;28;1099;-19
2023/07/17 00:23:54;;;;;;;;;;;;;;;26.11;40.13;100968.72;5068362;28;933;-19
2023/07/17 00:26:20;;;;;;;;;;;;;;;25.76;42.10;100965.38;5075738;28;1887;-18
2023/07/17 00:28:46;;;;;;;;;;;;;;;22.26;51.12;100958.19;5057688;28;1290;-19
2023/07/17 00:31:11;;;;;;;;;;;;;;;24.55;43.60;100952.94;5056998;28;1111;-18
2023/07/17 00:33:37;;;;;;;;;;;;;;;25.13;43.23;100955.84;5075580;28;1233;-18
2023/07/17 00:36:02;;;;;;;;;;;;;;;26.12;40.41;100970.44;5075085;28;909;-19
2023/07/17 00:38:28;;;;;;;;;;;;;;;26.06;40.29;100971.09;5075290;28;1206;-18
2023/07/17 00:40:53;;;;;;;;;;;;;;;25.82;41.73;100966.56;5075515;28;1090;-18
2023/07/17 00:43:19;;;;;;;;;;;;;;;22.21;50.84;100966.66;5057776;28;1519;-19
2023/07/17 00:45:44;;;;;;;;;;;;;;;24.43;43.69;100971.19;5077884;28;1965;-19
2023/07/17 00:48:10;;;;;;;;;;;;;;;25.08;43.61;100966.28;5061473;28;1228;-18
2023/07/17 00:50:36;;;;;;;;;;;;;;;26.09;39.29;100964.53;5079206;28;1018;-19
2023/07/17 00:53:03;;;;;;;;;;;;;;;26.06;40.22;100965.69;5079014;28;1141;-19
2023/07/17 00:55:29;;;;;;;;;;;;;;;25.95;41.31;100968.75;5061733;28;1138;-19
2023/07/17 00:57:55;;;;;;;;;;;;;;;22.42;50.46;100951.38;5079743;28;1027;-19
2023/07/17 01:00:22;;;;;;;;;;;;;;;24.37;43.97;100959.22;5078910;28;1121;-18
2023/07/17 01:02:47;;;;;;;;;;;;;;;25.05;43.26;100959.38;5061020;28;1220;-19
2023/07/17 01:05:13;;;;;;;;;;;;;;;25.98;39.40;100966.56;5044614;28;1969;-19
2023/07/17 01:07:39;;;;;;;;;;;;;;;25.94;40.20;100962.53;5079247;28;1063;-19
2023/07/17 01:10:05;;;;;;;;;;;;;;;25.79;42.09;100973.97;5078833;28;1118;-19
2023/07/17 01:12:33;;;;;;;;;;;;;;;22.36;50.50;100959.00;5068168;28;1202;-18
2023/07/17 01:14:59;;;;;;;;;;;;;;;24.47;43.37;100961.81;5078718;28;1150;-19
2023/07/17 01:17:25;;;;;;;;;;;;;;;25.03;43.29;100960.53;5061315;28;1159;-18
2023/07/17 01:19:51;;;;;;;;;;;;;;;25.88;40.34;100963.19;5060933;28;1099;-19
2023/07/17 01:22:19;;;;;;;;;;;;;;;25.79;39.74;100960.50;5078272;28;1130;-19
2023/07/17 01:24:44;;;;;;;;;;;;;;;25.70;41.98;100968.75;5078841;28;1046;-18
2023/07/17 01:27:11;;;;;;;;;;;;;;;26.21;39.25;100973.09;5078754;28;1898;-19
2023/07/17 01:29:36;;;;;;;;;;;;;;;24.47;40.88;100969.88;5078492;28;1194;-18
2023/07/17 01:32:02;;;;;;;;;;;;;;;23.20;47.39;100963.59;5078764;28;1073;-18
2023/07/17 01:34:29;;;;;;;;;;;;;;;24.98;42.49;100969.09;5059898;28;1210;-18
2023/07/17 01:36:55;;;;;;;;;;;;;;;25.42;41.44;100964.50;5078588;28;1105;-19
2023/07/17 01:39:20;;;;;;;;;;;;;;;25.38;42.89;100969.38;5060653;28;1199;-18
2023/07/17 01:41:46;;;;;;;;;;;;;;;25.94;40.01;100964.38;5078507;28;1123;-19
2023/07/17 01:44:11;;;;;;;;;;;;;;;25.76;41.51;100968.06;5078865;28;1167;-18
2023/07/17 01:46:37;;;;;;;;;;;;;;;26.02;40.41;100965.22;5070260;28;1902;-19
2023/07/17 01:49:03;;;;;;;;;;;;;;;22.35;47.39;100967.19;5060204;28;1170;-18
2023/07/17 01:51:28;;;;;;;;;;;;;;;23.69;45.13;100956.19;5078416;28;1103;-19
2023/07/17 01:53:54;;;;;;;;;;;;;;;24.75;44.53;100958.91;5053508;28;1460;-19
2023/07/17 01:56:19;;;;;;;;;;;;;;;25.59;41.05;100970.72;5067249;28;1029;-19
2023/07/17 01:58:45;;;;;;;;;;;;;;;25.59;41.41;100964.50;5057157;28;1663;-19
2023/07/17 02:01:10;;;;;;;;;;;;;;;25.98;40.14;100966.56;5058261;28;1131;-18
2023/07/17 02:03:36;;;;;;;;;;;;;;;22.17;48.29;100964.41;5042881;28;1218;-19
2023/07/17 02:06:01;;;;;;;;;;;;;;;23.69;45.58;100970.47;5050357;28;1965;-18
2023/07/17 02:08:27;;;;;;;;;;;;;;;24.94;44.31;100973.16;5073934;28;1126;-18
2023/07/17 02:10:54;;;;;;;;;;;;;;;25.59;41.04;100976.13;5077499;28;1019;-19
2023/07/17 02:13:19;;;;;;;;;;;;;;;25.43;41.95;100972.41;5078042;28;1154;-19
2023/07/17 02:15:45;;;;;;;;;;;;;;;25.88;40.52;100973.97;5059710;28;1509;-18
2023/07/17 02:18:10;;;;;;;;;;;;;;;22.16;48.74;100985.00;5077718;28;1130;-19
2023/07/17 02:20:37;;;;;;;;;;;;;;;23.63;45.50;100987.19;5077747;28;1127;-18
2023/07/17 02:23:03;;;;;;;;;;;;;;;24.84;44.16;100989.34;5077413;28;1237;-18
2023/07/17 02:25:28;;;;;;;;;;;;;;;25.50;40.95;100985.22;5059179;28;2292;-18
2023/07/17 02:27:54;;;;;;;;;;;;;;;25.49;41.62;100986.22;5074867;28;1078;-18
2023/07/17 02:30:20;;;;;;;;;;;;;;;25.79;41.43;100987.44;5067104;28;1091;-18
2023/07/17 02:32:45;;;;;;;;;;;;;;;22.14;48.54;100985.16;5059330;28;1241;-19
2023/07/17 02:35:11;;;;;;;;;;;;;;;23.58;46.13;100984.13;5076831;28;1122;-18
2023/07/17 02:37:36;;;;;;;;;;;;;;;24.69;44.73;100995.34;5077358;28;1128;-18
2023/07/17 02:40:05;;;;;;;;;;;;;;;25.39;41.66;100981.81;5059575;28;1115;-19
2023/07/17 02:42:31;;;;;;;;;;;;;;;25.38;42.35;100987.38;5059053;28;1111;-18
2023/07/17 02:44:56;;;;;;;;;;;;;;;25.78;40.85;100976.84;5077134;28;1039;-18
2023/07/17 02:47:22;;;;;;;;;;;;;;;21.82;49.94;100988.16;5077020;28;1981;-18
2023/07/17 02:49:49;;;;;;;;;;;;;;;23.63;45.79;100981.81;5077113;28;1151;-18
2023/07/17 02:52:14;;;;;;;;;;;;;;;24.78;44.50;100987.31;5077399;28;1094;-19
2023/07/17 02:54:40;;;;;;;;;;;;;;;25.51;41.95;100993.13;5059160;28;1130;-18
2023/07/17 02:57:06;;;;;;;;;;;;;;;25.00;40.26;100990.47;5058699;28;1135;-18
2023/07/17 02:59:32;;;;;;;;;;;;;;;22.56;49.83;100990.25;5069028;28;1090;-18
2023/07/17 03:01:58;;;;;;;;;;;;;;;24.50;43.09;100988.38;5070844;28;1217;-18
2023/07/17 03:04:23;;;;;;;;;;;;;;;24.99;43.06;100995.00;5076830;28;1066;-19
2023/07/17 03:06:49;;;;;;;;;;;;;;;25.17;43.87;100984.13;5074580;28;1917;-19
2023/07/17 03:09:14;;;;;;;;;;;;;;;25.19;47.04;100989.38;5044055;28;1158;-19
2023/07/17 03:11:40;;;;;;;;;;;;;;;25.05;48.97;100988.13;5064498;28;1540;-19
2023/07/17 03:14:05;;;;;;;;;;;;;;;25.30;48.04;100993.59;5076403;28;1012;-19
2023/07/17 03:16:31;;;;;;;;;;;;;;;25.29;48.02;100991.91;5058566;28;1186;-19
2023/07/17 03:18:57;;;;;;;;;;;;;;;25.43;47.41;100988.56;5058457;28;1194;-19
2023/07/17 03:21:22;;;;;;;;;;;;;;;25.37;48.30;100993.78;5058641;28;1142;-19
2023/07/17 03:23:48;;;;;;;;;;;;;;;25.30;48.77;100999.81;5076337;28;1114;-20
2023/07/17 03:26:13;;;;;;;;;;;;;;;25.46;48.10;100995.47;5076203;28;1981;-19
2023/07/17 03:28:39;;;;;;;;;;;;;;;25.06;49.03;100996.03;5058066;28;1964;-19
2023/07/17 03:31:07;;;;;;;;;;;;;;;25.20;48.68;101001.81;5058217;28;1218;-19
2023/07/17 03:33:32;;;;;;;;;;;;;;;25.38;47.61;100995.44;5058285;28;1179;-19
2023/07/17 03:35:59;;;;;;;;;;;;;;;24.22;49.01;100993.91;5076195;28;1087;-19
2023/07/17 03:38:26;;;;;;;;;;;;;;;24.77;49.05;101013.41;5076579;28;1260;-20
2023/07/17 03:40:51;;;;;;;;;;;;;;;25.29;48.51;101003.50;5076595;28;1113;-20
2023/07/17 03:43:17;;;;;;;;;;;;;;;25.53;47.22;101012.66;5076330;28;1146;-19
2023/07/17 03:45:45;;;;;;;;;;;;;;;25.37;47.88;101016.16;5058373;28;1981;-18
2023/07/17 03:48:10;;;;;;;;;;;;;;;26.06;45.46;101016.91;5042853;28;1328;-19
2023/07/17 03:50:38;;;;;;;;;;;;;;;22.66;51.78;101009.03;5054990;28;1181;-18
2023/07/17 03:53:04;;;;;;;;;;;;;;;23.82;51.03;101012.22;5058303;28;1032;-18
2023/07/17 03:55:29;;;;;;;;;;;;;;;24.91;45.79;101011.97;5076012;28;1174;-18
2023/07/17 03:57:55;;;;;;;;;;;;;;;22.46;50.98;101003.69;5057930;28;1214;-18
2023/07/17 04:00:21;;;;;;;;;;;;;;;22.09;52.20;101002.63;5057287;28;1289;-18
2023/07/17 04:02:46;;;;;;;;;;;;;;;21.91;53.86;101000.69;5076204;28;1012;-18
2023/07/17 04:05:35;;;;;;;;;;;;;;;21.59;54.69;100999.94;5057996;28;1979;-18
2023/07/17 04:08:01;;;;;;;;;;;;;;;23.19;52.26;101004.00;5058134;28;1162;-18
2023/07/17 04:10:28;;;;;;;;;;;;;;;24.24;46.79;101005.34;5058440;28;1183;-18
2023/07/17 04:12:54;;;;;;;;;;;;;;;22.32;53.35;101010.38;5057868;28;1196;-18
2023/07/17 04:15:19;;;;;;;;;;;;;;;22.39;54.84;101001.59;5058094;28;1099;-18
2023/07/17 04:17:45;;;;;;;;;;;;;;;23.97;50.36;101002.59;5057994;28;1171;-18
2023/07/17 04:20:11;;;;;;;;;;;;;;;22.76;52.52;101001.78;5058960;28;1400;-19
2023/07/17 04:22:36;;;;;;;;;;;;;;;21.74;55.70;100999.50;5062351;28;1339;-19
2023/07/17 04:25:03;;;;;;;;;;;;;;;21.56;56.57;101000.22;5061868;28;1169;-18
2023/07/17 04:27:30;;;;;;;;;;;;;;;21.50;56.68;100995.41;5062094;28;1971;-18
2023/07/17 04:29:57;;;;;;;;;;;;;;;21.46;57.07;100996.66;5061911;28;1325;-18
2023/07/17 04:32:24;;;;;;;;;;;;;;;23.47;52.65;100993.25;5062139;28;1215;-18
2023/07/17 04:34:49;;;;;;;;;;;;;;;24.62;50.93;100999.72;5061713;28;1118;-18
2023/07/17 04:37:15;;;;;;;;;;;;;;;25.19;47.87;100995.56;5079805;28;871;-18
2023/07/17 04:39:40;;;;;;;;;;;;;;;23.45;51.11;100998.78;5061418;28;1359;-18
2023/07/17 04:42:06;;;;;;;;;;;;;;;22.05;55.76;100999.41;5061765;28;1194;-18
2023/07/17 04:44:31;;;;;;;;;;;;;;;21.68;56.92;100994.72;5061750;28;1145;-18
2023/07/17 04:46:59;;;;;;;;;;;;;;;21.40;57.19;100996.22;5061581;28;2010;-19
2023/07/17 04:49:25;;;;;;;;;;;;;;;21.55;56.73;100993.19;5060951;28;1094;-18
2023/07/17 04:51:50;;;;;;;;;;;;;;;21.86;56.73;101001.09;5062052;28;1154;-18
2023/07/17 04:54:16;;;;;;;;;;;;;;;23.53;51.98;101006.06;5061624;28;1306;-18
2023/07/17 04:56:41;;;;;;;;;;;;;;;22.53;53.41;101002.13;5061766;28;1292;-18
2023/07/17 04:59:13;;;;;;;;;;;;;;;21.83;55.61;101003.22;5061204;28;1967;-18
2023/07/17 05:01:39;;;;;;;;;;;;;;;21.48;56.56;101000.06;5060979;28;1614;-18
2023/07/17 05:04:06;;;;;;;;;;;;;;;21.32;57.40;100992.56;5061131;28;1162;-18
2023/07/17 05:06:32;;;;;;;;;;;;;;;21.34;57.19;101001.28;5061223;28;1898;-18
2023/07/17 05:08:57;;;;;;;;;;;;;;;23.10;53.01;101003.91;5061234;28;1288;-18
2023/07/17 05:11:23;;;;;;;;;;;;;;;21.06;55.54;101006.44;5061008;28;1241;-18
2023/07/17 05:13:48;;;;;;;;;;;;;;;21.48;56.65;101002.72;5079241;28;960;-18
2023/07/17 05:16:14;;;;;;;;;;;;;;;22.74;50.40;100998.41;5061257;28;1323;-18
2023/07/17 05:18:40;;;;;;;;;;;;;;;20.17;61.11;101004.97;5060745;28;1387;-18
2023/07/17 05:21:05;;;;;;;;;;;;;;;23.18;50.77;101002.28;5061215;28;1119;-18
2023/07/17 05:23:31;;;;;;;;;;;;;;;20.17;58.37;101001.44;5061190;28;1152;-18
2023/07/17 05:25:57;;;;;;;;;;;;;;;20.16;62.03;101005.09;5060427;28;1985;-18
2023/07/17 05:28:24;;;;;;;;;;;;;;;23.36;50.52;101011.22;5057531;28;1254;-18
2023/07/17 05:30:54;;;;;;;;;;;;;;;19.74;59.37;101001.38;5053858;28;1230;-18
2023/07/17 05:33:20;;;;;;;;;;;;;;;21.27;56.94;101009.06;5059754;28;1471;-18
2023/07/17 05:35:45;;;;;;;;;;;;;;;22.12;51.74;101015.75;5078556;28;1205;-18
2023/07/17 05:38:11;;;;;;;;;;;;;;;19.59;60.01;101011.50;5060492;28;1162;-18
2023/07/17 05:40:39;;;;;;;;;;;;;;;22.19;53.55;101021.41;5060104;28;1114;-18
2023/07/17 05:43:07;;;;;;;;;;;;;;;20.74;56.13;101006.44;5060212;28;1226;-18
2023/07/17 05:45:33;;;;;;;;;;;;;;;19.47;60.19;101005.34;5060208;28;2042;-19
2023/07/17 05:47:59;;;;;;;;;;;;;;;22.16;53.40;101016.28;5060048;28;1119;-18
2023/07/17 05:50:24;;;;;;;;;;;;;;;20.65;55.99;101010.72;5059640;28;1249;-18
2023/07/17 05:52:50;;;;;;;;;;;;;;;20.18;60.45;101013.84;5077464;28;1076;-18
2023/07/17 05:55:16;;;;;;;;;;;;;;;23.27;49.31;101013.97;5059549;28;1126;-18
2023/07/17 05:57:41;;;;;;;;;;;;;;;19.81;57.99;101012.41;5077873;28;1005;-18
2023/07/17 06:00:10;;;;;;;;;;;;;;;20.85;57.38;101018.88;5059827;28;1268;-18
2023/07/17 06:02:39;;;;;;;;;;;;;;;22.95;49.00;101024.16;5077381;28;898;-18
2023/07/17 06:05:04;;;;;;;;;;;;;;;19.55;56.43;101013.56;5046586;28;1091;-18
2023/07/17 06:07:31;;;;;;;;;;;;;;;22.13;50.88;101020.97;5077300;28;1971;-18
2023/07/17 06:09:56;;;;;;;;;;;;;;;22.81;48.62;101023.66;5077355;28;1134;-18
2023/07/17 06:12:22;;;;;;;;;;;;;;;22.06;50.12;101019.84;5077274;28;1155;-18
2023/07/17 06:14:47;;;;;;;;;;;;;;;22.16;50.77;101027.00;5076782;28;1099;-18
2023/07/17 06:17:13;;;;;;;;;;;;;;;22.16;51.44;101027.88;5077470;28;1109;-18
2023/07/17 06:19:38;;;;;;;;;;;;;;;22.19;51.62;101019.53;5077493;28;1127;-18
2023/07/17 06:22:04;;;;;;;;;;;;;;;23.28;49.51;101016.50;5077361;28;1024;-18
2023/07/17 06:24:29;;;;;;;;;;;;;;;24.17;46.29;101021.25;5076663;28;1175;-18
2023/07/17 06:26:55;;;;;;;;;;;;;;;22.82;48.83;101014.59;5077097;28;1909;-18
2023/07/17 06:29:20;;;;;;;;;;;;;;;20.13;56.86;101011.56;5076984;28;1039;-18
2023/07/17 06:31:46;;;;;;;;;;;;;;;20.35;59.68;101014.25;5077458;28;1118;-18
2023/07/17 06:34:11;;;;;;;;;;;;;;;23.56;48.55;101012.97;5076719;28;1202;-18
2023/07/17 06:36:37;;;;;;;;;;;;;;;19.92;58.07;101014.16;5076785;28;1074;-18
2023/07/17 06:39:02;;;;;;;;;;;;;;;19.90;61.45;101008.94;5077299;28;1134;-18
2023/07/17 06:41:28;;;;;;;;;;;;;;;22.93;50.75;101008.22;5074007;28;1031;-17
2023/07/17 06:43:55;;;;;;;;;;;;;;;20.05;56.45;101003.34;5056857;28;1280;-17
2023/07/17 06:46:20;;;;;;;;;;;;;;;20.93;57.94;101002.19;5066011;28;1973;-18
2023/07/17 06:48:46;;;;;;;;;;;;;;;23.30;49.57;101003.78;5074674;28;1081;-18
2023/07/17 06:51:11;;;;;;;;;;;;;;;19.63;56.79;100999.59;5075590;28;1075;-18
2023/07/17 06:53:37;;;;;;;;;;;;;;;22.22;52.18;101005.03;5075865;28;1149;-18
2023/07/17 06:56:03;;;;;;;;;;;;;;;21.29;53.24;100997.22;5075996;28;1142;-18
2023/07/17 06:58:28;;;;;;;;;;;;;;;19.59;58.33;100995.47;5076622;28;1020;-18
2023/07/17 07:00:55;;;;;;;;;;;;;;;22.69;50.89;100998.84;5076287;28;1154;-18
2023/07/17 07:03:20;;;;;;;;;;;;;;;20.72;54.84;100995.00;5075190;28;1110;-18
2023/07/17 07:06:01;;;;;;;;;;;;;;;19.90;60.10;101000.94;5076478;28;1897;-18
2023/07/17 07:08:28;;;;;;;;;;;;;;;23.32;49.29;101001.78;5074155;28;1709;-18
2023/07/17 07:10:53;;;;;;;;;;;;;;;20.16;55.99;101002.44;5075336;28;1126;-18
2023/07/17 07:13:19;;;;;;;;;;;;;;;20.63;58.91;101001.16;5076081;28;1162;-18
2023/07/17 07:15:45;;;;;;;;;;;;;;;23.48;49.52;101000.31;5076200;28;1007;-18
2023/07/17 07:18:10;;;;;;;;;;;;;;;19.99;56.84;100998.47;5075756;28;1155;-18
2023/07/17 07:20:36;;;;;;;;;;;;;;;20.91;58.14;100996.06;5075889;28;1138;-18
2023/07/17 07:23:02;;;;;;;;;;;;;;;23.80;48.44;100990.03;5075868;28;1098;-18
2023/07/17 07:25:27;;;;;;;;;;;;;;;19.79;57.60;100985.84;5071220;28;1981;-18
2023/07/17 07:27:52;;;;;;;;;;;;;;;20.97;57.45;100992.88;5055654;28;1054;-18
2023/07/17 07:30:18;;;;;;;;;;;;;;;23.55;49.31;100997.84;5074358;28;963;-18
2023/07/17 07:32:43;;;;;;;;;;;;;;;19.78;57.60;100997.50;5074665;28;1062;-19
2023/07/17 07:35:09;;;;;;;;;;;;;;;21.16;56.86;100993.94;5075159;28;1062;-18
2023/07/17 07:37:34;;;;;;;;;;;;;;;23.03;50.75;100991.22;5075473;28;1107;-18
2023/07/17 07:40:00;;;;;;;;;;;;;;;19.68;58.08;100988.53;5075726;28;1077;-18
2023/07/17 07:42:26;;;;;;;;;;;;;;;20.86;58.37;100998.31;5075731;28;1075;-18
2023/07/17 07:44:51;;;;;;;;;;;;;;;23.66;49.48;100996.78;5075682;28;1062;-18
2023/07/17 07:47:16;;;;;;;;;;;;;;;19.88;58.04;101002.91;5075556;28;1974;-18
2023/07/17 07:49:42;;;;;;;;;;;;;;;20.93;58.09;101004.84;5075363;28;1016;-18
2023/07/17 07:52:07;;;;;;;;;;;;;;;23.69;49.24;101004.56;5075777;28;1117;-18
2023/07/17 07:54:33;;;;;;;;;;;;;;;19.88;57.49;101005.59;5074500;28;1051;-18
2023/07/17 07:56:58;;;;;;;;;;;;;;;20.60;58.52;101013.00;5075461;28;1332;-18
2023/07/17 07:59:24;;;;;;;;;;;;;;;23.59;48.78;101015.34;5075433;28;1103;-18
2023/07/17 08:01:49;;;;;;;;;;;;;;;19.97;56.88;101003.94;5075031;28;1035;-18
2023/07/17 08:04:15;;;;;;;;;;;;;;;20.58;58.80;101014.94;5076404;28;1228;-18
2023/07/17 08:06:40;;;;;;;;;;;;;;;23.65;49.29;101019.25;5075241;28;1914;-18
2023/07/17 08:09:06;;;;;;;;;;;;;;;19.88;57.39;101013.59;5075287;28;1047;-18
2023/07/17 08:11:32;;;;;;;;;;;;;;;20.42;60.48;101013.56;5075657;28;1035;-18
2023/07/17 08:13:57;;;;;;;;;;;;;;;23.26;50.54;101017.63;5075243;28;1114;-18
2023/07/17 08:16:23;;;;;;;;;;;;;;;20.18;57.35;101013.84;5075483;28;1051;-18
2023/07/17 08:18:48;;;;;;;;;;;;;;;19.65;61.62;101007.47;5075270;28;1150;-18
2023/07/17 08:21:14;;;;;;;;;;;;;;;22.83;52.01;101019.00;5075573;28;1571;-18
2023/07/17 08:23:40;;;;;;;;;;;;;;;20.54;56.59;101013.50;5075520;28;1213;-18
2023/07/17 08:26:05;;;;;;;;;;;;;;;19.37;59.56;101015.06;5071970;28;1910;-18
2023/07/17 08:28:31;;;;;;;;;;;;;;;22.44;53.21;101024.47;5087944;28;837;-18
2023/07/17 08:30:56;;;;;;;;;;;;;;;21.15;55.17;101025.19;5078272;28;1073;-18
2023/07/17 08:33:22;;;;;;;;;;;;;;;20.57;60.95;101023.91;5054380;28;2215;-18
2023/07/17 08:35:48;;;;;;;;;;;;;;;23.32;50.64;101023.25;5073828;28;2033;-18
2023/07/17 08:38:14;;;;;;;;;;;;;;;24.67;48.99;101023.44;5068926;28;1481;-18
2023/07/17 08:40:39;;;;;;;;;;;;;;;25.58;47.57;101035.53;5068097;28;1992;-18
2023/07/17 08:43:05;;;;;;;;;;;;;;;26.28;46.81;101033.41;5069992;28;1940;-18
2023/07/17 08:45:31;;;;;;;;;;;;;;;26.13;48.49;101036.81;5063372;28;1906;-18
2023/07/17 08:47:57;;;;;;;;;;;;;;;26.50;47.04;101037.28;5056035;28;1983;-18
2023/07/17 08:50:22;;;;;;;;;;;;;;;26.23;48.53;101035.78;5050508;28;1092;-18
2023/07/17 08:52:48;;;;;;;;;;;;;;;26.40;48.50;101036.63;5048661;28;1143;-18
2023/07/17 08:55:13;;;;;;;;;;;;;;;26.57;48.11;101032.06;5051119;28;1119;-18
2023/07/17 08:57:39;;;;;;;;;;;;;;;26.74;48.18;101040.09;5074547;28;1259;-18
2023/07/17 09:00:05;;;;;;;;;;;;;;;26.82;47.69;101025.72;5056568;28;1071;-18
2023/07/17 09:02:31;;;;;;;;;;;;;;;26.69;48.28;101037.94;5073941;28;999;-18
2023/07/17 09:04:57;;;;;;;;;;;;;;;25.89;51.97;101032.25;5074365;28;1002;-18
2023/07/17 09:07:22;;;;;;;;;;;;;;;26.73;47.87;101031.16;5076817;28;1902;-18
2023/07/17 09:10:06;;;;;;;;;;;;;;;23.78;54.07;101019.72;5077518;28;1014;-18
2023/07/17 09:12:32;;;;;;;;;;;;;;;22.37;56.44;101024.19;5057740;28;1413;-18
2023/07/17 09:14:57;;;;;;;;;;;;;;;21.88;56.48;101020.56;5058172;28;1051;-18
2023/07/17 09:17:25;;;;;;;;;;;;;;;23.17;56.87;101022.09;5060073;28;1936;-18
2023/07/17 09:19:51;;;;;;;;;;;;;;;24.22;52.17;101028.88;5077622;28;1131;-18
2023/07/17 09:22:16;;;;;;;;;;;;;;;22.11;55.60;101022.94;5076901;28;1023;-18
2023/07/17 09:24:42;;;;;;;;;;;;;;;21.89;61.24;101022.25;5077928;28;1118;-18
2023/07/17 09:27:07;;;;;;;;;;;;;;;24.23;51.92;101016.25;5051528;28;1971;-18
2023/07/17 09:29:33;;;;;;;;;;;;;;;22.31;55.17;101022.91;5081032;28;995;-18
2023/07/17 09:32:18;;;;;;;;;;;;;;;21.87;58.25;101026.06;5077797;28;1138;-18
2023/07/17 09:35:00;;;;;;;;;;;;;;;24.79;50.44;101024.81;5077164;28;1090;-18
2023/07/17 09:37:29;;;;;;;;;;;;;;;22.48;54.49;101021.34;5058876;28;1129;-18
2023/07/17 09:39:54;;;;;;;;;;;;;;;21.88;59.38;101015.22;5060406;28;956;-18
2023/07/17 09:42:23;;;;;;;;;;;;;;;24.60;50.66;101020.53;5056005;28;1084;-18
2023/07/17 09:44:50;;;;;;;;;;;;;;;22.57;53.99;101022.28;5057816;28;1092;-18
2023/07/17 09:47:15;;;;;;;;;;;;;;;21.78;56.04;101025.06;5072412;28;2432;-18
2023/07/17 09:49:41;;;;;;;;;;;;;;;22.81;56.33;101012.94;5077093;28;1078;-18
2023/07/17 09:52:06;;;;;;;;;;;;;;;24.23;51.53;101017.09;5074268;28;929;-18
2023/07/17 09:54:32;;;;;;;;;;;;;;;21.89;55.80;101014.22;5077229;28;1070;-18
2023/07/17 09:56:58;;;;;;;;;;;;;;;23.55;53.93;101016.66;5059364;28;1116;-18
2023/07/17 09:59:24;;;;;;;;;;;;;;;23.20;52.66;101017.28;5077632;28;943;-18
2023/07/17 10:01:50;;;;;;;;;;;;;;;21.84;55.65;101021.81;5077506;28;1090;-18
2023/07/17 10:04:31;;;;;;;;;;;;;;;22.83;56.16;101010.94;5058627;28;876;-18
2023/07/17 10:06:57;;;;;;;;;;;;;;;23.61;52.30;101010.66;5062738;28;1975;-18
2023/07/17 10:09:22;;;;;;;;;;;;;;;22.01;55.29;101019.41;5059150;28;1000;-18
2023/07/17 10:11:48;;;;;;;;;;;;;;;23.48;54.21;101011.03;5058615;28;1019;-15
2023/07/17 10:14:13;;;;;;;;;;;;;;;24.05;51.06;101007.19;5058384;28;1146;-15
2023/07/17 10:16:39;;;;;;;;;;;;;;;22.04;55.34;101010.28;5060730;28;1006;-15
2023/07/17 10:19:04;;;;;;;;;;;;;;;22.49;58.03;101009.59;5054847;28;2208;-15
2023/07/17 10:21:30;;;;;;;;;;;;;;;24.90;49.91;101009.41;5056040;28;1083;-15
2023/07/17 10:23:59;;;;;;;;;;;;;;;22.36;54.56;101003.72;5066459;28;1063;-15
2023/07/17 10:26:25;;;;;;;;;;;;;;;21.98;59.40;101004.50;5074976;28;1967;-15
2023/07/17 10:28:53;;;;;;;;;;;;;;;24.97;48.70;101007.81;5052062;28;1443;-16
2023/07/17 10:31:19;;;;;;;;;;;;;;;22.69;53.26;100996.16;5076362;28;1046;-15
2023/07/17 10:33:50;;;;;;;;;;;;;;;22.35;58.45;101002.91;5075697;28;1051;-15
2023/07/17 10:36:16;;;;;;;;;;;;;;;25.39;47.96;101008.75;5075283;28;1087;-15
2023/07/17 10:38:47;;;;;;;;;;;;;;;22.70;53.59;101005.06;5064788;28;1111;-15
2023/07/17 10:41:12;;;;;;;;;;;;;;;22.24;59.54;101006.56;5058205;28;1008;-16
2023/07/17 10:43:49;;;;;;;;;;;;;;;25.50;47.61;100994.13;5055723;28;1091;-16
2023/07/17 10:46:14;;;;;;;;;;;;;;;22.58;53.93;100999.00;5076235;28;1894;-16
2023/07/17 10:48:40;;;;;;;;;;;;;;;21.90;55.66;100996.31;5075329;28;1776;-17
2023/07/17 10:51:05;;;;;;;;;;;;;;;22.00;60.52;100993.63;5070929;28;1055;-16
2023/07/17 10:53:31;;;;;;;;;;;;;;;25.27;48.52;100994.78;5069806;28;1007;-16
2023/07/17 10:55:56;;;;;;;;;;;;;;;22.75;54.43;100992.88;5076469;28;1118;-16
2023/07/17 10:58:22;;;;;;;;;;;;;;;22.07;58.11;100991.22;5058924;28;1034;-16
2023/07/17 11:00:47;;;;;;;;;;;;;;;24.74;52.26;100994.03;5068749;28;1222;-16
2023/07/17 11:03:13;;;;;;;;;;;;;;;23.52;53.61;100979.38;5068523;28;1051;-16
2023/07/17 11:05:39;;;;;;;;;;;;;;;22.20;56.97;100983.75;5076443;28;1969;-16
2023/07/17 11:08:07;;;;;;;;;;;;;;;24.18;54.24;100987.16;5076742;28;1020;-16
2023/07/17 11:10:33;;;;;;;;;;;;;;;24.01;53.57;100983.47;5076156;28;999;-16
2023/07/17 11:13:02;;;;;;;;;;;;;;;22.39;57.33;100979.31;5075651;28;964;-16
2023/07/17 11:15:29;;;;;;;;;;;;;;;22.38;58.94;100983.84;5062255;28;1050;-16
2023/07/17 11:17:54;;;;;;;;;;;;;;;22.09;60.32;100981.19;5072198;28;2336;-15
2023/07/17 11:20:20;;;;;;;;;;;;;;;21.83;61.24;100985.31;5080060;28;891;-15
2023/07/17 11:22:46;;;;;;;;;;;;;;;21.68;61.67;100990.22;5075489;28;984;-15
2023/07/17 11:25:11;;;;;;;;;;;;;;;21.56;62.11;100980.63;5075325;28;992;-15
2023/07/17 11:27:38;;;;;;;;;;;;;;;21.42;61.96;100985.38;5057003;28;1914;-15
2023/07/17 11:30:14;;;;;;;;;;;;;;;21.31;62.38;100982.84;5056060;28;1062;-15
2023/07/17 11:32:40;;;;;;;;;;;;;;;21.41;62.37;100983.72;5071808;28;1330;-16
2023/07/17 11:35:06;;;;;;;;;;;;;;;20.90;63.70;100986.38;5071178;28;1088;-15
2023/07/17 11:37:34;;;;;;;;;;;;;;;20.54;64.81;100978.75;5075218;28;1107;-15
2023/07/17 11:40:05;;;;;;;;;;;;;;;20.34;65.52;100984.00;5077388;28;848;-15
2023/07/17 11:42:50;;;;;;;;;;;;;;;20.33;65.55;100986.78;5078515;28;1098;-15
2023/07/17 11:45:16;;;;;;;;;;;;;;;20.23;65.83;100986.72;5075543;28;995;-15
2023/07/17 11:47:41;;;;;;;;;;;;;;;20.07;66.31;100982.69;5074745;28;2389;-15
2023/07/17 11:50:07;;;;;;;;;;;;;;;19.93;66.33;100981.16;5056409;28;1386;-15
2023/07/17 11:52:32;;;;;;;;;;;;;;;19.93;66.26;100979.34;5074250;28;1074;-15
2023/07/17 11:54:58;;;;;;;;;;;;;;;19.72;66.88;100978.47;5074654;28;1111;-15
2023/07/17 11:57:26;;;;;;;;;;;;;;;19.68;67.06;100977.88;5074952;28;1054;-15
2023/07/17 12:00:00;;;;;;;;;;;;;;;19.59;67.50;100976.81;5074745;28;865;-15
2023/07/17 12:02:25;;;;;;;;;;;;;;;19.58;67.60;100978.59;5074803;28;1103;-15
2023/07/17 12:04:51;;;;;;;;;;;;;;;19.58;67.57;100977.78;5074350;28;877;-15
2023/07/17 12:07:19;;;;;;;;;;;;;;;19.54;67.60;100974.53;5074892;28;1978;-15
2023/07/17 12:09:45;;;;;;;;;;;;;;;19.61;67.67;100969.53;5074222;28;1024;-15
2023/07/17 12:12:10;;;;;;;;;;;;;;;19.61;67.38;100971.34;5074944;28;1142;-15
2023/07/17 12:14:36;;;;;;;;;;;;;;;19.52;67.70;100967.63;5074911;28;1035;-15
2023/07/17 12:17:02;;;;;;;;;;;;;;;19.58;67.13;100975.94;5069934;28;1334;-15
2023/07/17 12:19:27;;;;;;;;;;;;;;;19.51;66.60;100977.44;5069722;28;2490;-15
2023/07/17 12:21:53;;;;;;;;;;;;;;;19.54;66.75;100973.66;5072717;28;1370;-15
2023/07/17 12:24:19;;;;;;;;;;;;;;;19.55;66.68;100972.72;5074876;28;1023;-15
2023/07/17 12:26:45;;;;;;;;;;;;;;;19.58;66.54;100975.94;5074940;28;1992;-15
2023/07/17 12:29:10;;;;;;;;;;;;;;;19.60;66.45;100966.97;5074314;28;867;-16
2023/07/17 12:31:36;;;;;;;;;;;;;;;19.75;65.78;100967.53;5074336;28;1177;-16
2023/07/17 12:34:01;;;;;;;;;;;;;;;19.68;65.61;100975.19;5072842;28;1095;-15
2023/07/17 12:36:27;;;;;;;;;;;;;;;19.49;65.35;100965.19;5074680;28;1107;-15
2023/07/17 12:38:55;;;;;;;;;;;;;;;19.39;65.38;100967.75;5074571;28;1201;-15
2023/07/17 12:41:20;;;;;;;;;;;;;;;19.27;65.71;100967.78;5076259;28;1151;-15
2023/07/17 12:43:46;;;;;;;;;;;;;;;19.30;65.14;100958.72;5060491;28;1436;-15